Close Search

Base
°C
Summit
°C

WEATHER AT A GLANCE

Image Slideshow

RMR Village

Revelstoke Mountain Resort -  RMR Village Webcam

Top of The Stoke

Revelstoke Mountain Resort -  Top of The Stoke Webcam

Top of Stellar

Revelstoke Mountain Resort -  Top of Stellar Webcam

Mackenzie Outpost

Revelstoke Mountain Resort -  Mackenzie Outpost Webcam

Ripper

Revelstoke Mountain Resort -  Ripper Webcam
Base
°C
Summit
°C
Wind (Summit)
km/h

Today's Forecast

Subpeak Weather

Time Avg. Air Temp Dew Point Avg. Rel Humidity Avg. 2 Min Wind Speed Max Gust Velocity MGV Time MGV Direction Avg. Spot Wind Velocity
2026-09-03 04:50:004° C2° C91%19 km/h24 km/h04:49:00SE16 km/h
03:50:004° C2° C91%9 km/h13 km/h03:48:00SE10 km/h
02:50:004° C3° C93%18 km/h20 km/h02:49:00SE14 km/h
01:50:004° C2° C92%18 km/h20 km/h01:50:00SE18 km/h
00:50:004° C3° C100%11 km/h12 km/h00:50:00S11 km/h
23:50:004° C3° C94%11 km/h20 km/h23:47:00E14 km/h
22:50:004° C4° C99%30 km/h35 km/h22:50:00SE27 km/h
21:50:004° C4° C100%27 km/h35 km/h21:50:00SE24 km/h
20:50:004° C4° C100%19 km/h33 km/h20:46:00SE14 km/h
19:50:005° C5° C100%28 km/h33 km/h19:48:00SE27 km/h
18:50:005° C5° C93%16 km/h27 km/h18:50:00SE19 km/h
17:50:006° C4° C85%8 km/h12 km/h17:50:00S6 km/h
16:50:007° C4° C83%9 km/h15 km/h16:47:00S8 km/h
15:50:009° C6° C77%12 km/h17 km/h15:46:00S10 km/h
14:50:008° C5° C77%6 km/h13 km/h14:48:00SE9 km/h
13:50:006° C2° C78%13 km/h22 km/h13:47:00E15 km/h
12:50:006° C2° C78%32 km/h42 km/h12:47:00SE31 km/h
11:50:007° C4° C85%21 km/h31 km/h11:50:00SE21 km/h
10:50:008° C5° C80%13 km/h30 km/h10:46:00S13 km/h
09:50:009° C4° C74%13 km/h22 km/h09:48:00SE14 km/h
08:50:008° C5° C80%19 km/h26 km/h08:48:00SE18 km/h
07:50:007° C4° C80%15 km/h36 km/h07:48:00E22 km/h
06:50:007° C4° C79%20 km/h25 km/h06:47:00SE21 km/h
05:50:007° C4° C82%16 km/h29 km/h05:46:00SE18 km/h

Time Avg. Air Temp Dew Point Avg. Rel Humidity Avg. 2 Min Wind Speed Max Gust Velocity MGV Time MGV Direction Avg. Spot Wind Velocity
2026-09-03 04:50:004° C2° C91%19 km/h24 km/h04:49:00SE16 km/h
04:45:004° C2° C89%16 km/h26 km/h04:42:00SE17 km/h
04:40:004° C2° C87%21 km/h26 km/h04:38:00SE23 km/h
04:35:004° C2° C88%22 km/h28 km/h04:35:00SE21 km/h
04:30:004° C2° C90%14 km/h24 km/h04:27:00SE15 km/h
04:25:004° C2° C88%20 km/h22 km/h04:25:00SE18 km/h
04:20:004° C2° C87%17 km/h19 km/h04:16:00SE18 km/h
04:15:004° C2° C88%17 km/h20 km/h04:12:00SE18 km/h
04:10:004° C2° C89%18 km/h20 km/h04:10:00S18 km/h
04:05:004° C2° C90%20 km/h23 km/h04:03:00S21 km/h
04:00:004° C2° C89%20 km/h22 km/h04:00:00SE19 km/h
03:55:004° C2° C90%14 km/h17 km/h03:55:00SE14 km/h
03:50:004° C2° C91%9 km/h13 km/h03:48:00SE10 km/h

We value your privacy
We use cookies to enhance your browsing experience, serve personalized ads or content, and analyze our traffic. By clicking "Allow Cookies", you consent to our use of cookies. For additional details view our Privacy Policy.
Cookie preferences

You can control how your data is used on our website. Learn more below about the cookies we use by reviewing our Privacy Policy.

Your cookie preferences have been saved.